Time;durP1;ratioP1;P1;durP2;ratioP2;P2;SDS_P1;SDS_P2;PMS_P1;PMS_P2;Temp;Humidity;BMP_temperature;BMP_pressure;BME280_temperature;BME280_humidity;BME280_pressure;Samples;Min_cycle;Max_cycle;Signal;HPM_P1;HPM_P2
2023/07/24 00:00:14;;;;;;;8.33;6.53;;;24.50;53.80;;;;;;5052984;28;20196;-43
2023/07/24 00:02:40;;;;;;;8.60;7.00;;;24.50;54.00;;;;;;5053249;28;20652;-44
2023/07/24 00:05:06;;;;;;;9.53;7.70;;;24.60;54.20;;;;;;5052651;28;20419;-43
2023/07/24 00:07:31;;;;;;;8.77;7.40;;;24.50;54.60;;;;;;5053255;28;20283;-43
2023/07/24 00:09:57;;;;;;;9.10;7.80;;;24.50;55.40;;;;;;5052811;28;20805;-43
2023/07/24 00:12:22;;;;;;;11.07;7.20;;;24.20;56.50;;;;;;5053311;28;20271;-43
2023/07/24 00:14:48;;;;;;;7.93;7.00;;;23.90;57.10;;;;;;5052200;28;20236;-43
2023/07/24 00:17:14;;;;;;;7.70;6.10;;;24.00;57.20;;;;;;5052701;28;20228;-43
2023/07/24 00:19:39;;;;;;;11.07;7.23;;;24.20;56.90;;;;;;5052659;28;20199;-43
2023/07/24 00:22:05;;;;;;;9.00;6.90;;;24.30;56.50;;;;;;5051425;28;20192;-43
2023/07/24 00:24:32;;;;;;;8.27;6.93;;;24.30;56.70;;;;;;5053144;28;20724;-43
2023/07/24 00:26:57;;;;;;;10.33;6.20;;;24.30;57.20;;;;;;5051811;28;20187;-43
2023/07/24 00:29:23;;;;;;;8.27;6.63;;;24.10;57.40;;;;;;5053247;28;20423;-44
2023/07/24 00:31:49;;;;;;;11.43;7.07;;;24.20;57.50;;;;;;5052147;28;20275;-43
2023/07/24 00:34:14;;;;;;;9.90;7.63;;;24.20;57.80;;;;;;5052944;28;20621;-45
2023/07/24 00:36:40;;;;;;;11.00;7.03;;;24.30;58.00;;;;;;5051591;28;20220;-46
2023/07/24 00:39:06;;;;;;;9.80;7.73;;;24.30;58.40;;;;;;5052704;28;20203;-46
2023/07/24 00:41:32;;;;;;;11.17;8.30;;;24.00;59.20;;;;;;5052190;28;20195;-49
2023/07/24 00:43:57;;;;;;;10.33;7.67;;;23.50;60.70;;;;;;5052749;28;20189;-46
2023/07/24 00:46:24;;;;;;;9.30;8.20;;;23.20;61.60;;;;;;5051488;28;20208;-49
2023/07/24 00:48:50;;;;;;;8.87;7.23;;;23.30;61.20;;;;;;5050987;28;20565;-49
2023/07/24 00:51:16;;;;;;;9.50;7.40;;;22.90;61.20;;;;;;5051636;28;20443;-48
2023/07/24 00:53:42;;;;;;;8.90;7.57;;;22.40;63.20;;;;;;5052541;28;20564;-47
2023/07/24 00:56:09;;;;;;;11.60;7.40;;;21.90;65.30;;;;;;5050800;28;20909;-45
2023/07/24 00:58:37;;;;;;;8.70;6.93;;;22.00;65.40;;;;;;5052455;28;20724;-47
2023/07/24 01:01:03;;;;;;;11.30;8.13;;;22.40;64.50;;;;;;5051601;28;21060;-49
2023/07/24 01:03:34;;;;;;;9.07;7.80;;;22.70;63.60;;;;;;5052173;28;20513;-46
2023/07/24 01:06:03;;;;;;;11.33;8.47;;;22.40;62.70;;;;;;5051215;28;20484;-47
2023/07/24 01:08:29;;;;;;;9.50;7.57;;;22.20;63.80;;;;;;5052441;28;20430;-47
2023/07/24 01:10:59;;;;;;;9.30;7.57;;;22.20;63.00;;;;;;5051107;28;20419;-48
2023/07/24 01:13:28;;;;;;;7.47;6.60;;;22.10;62.90;;;;;;5045417;28;20200;-47
2023/07/24 01:16:07;;;;;;;8.50;7.60;;;22.20;62.50;;;;;;5049480;28;20510;-48
2023/07/24 01:18:36;;;;;;;7.27;6.47;;;22.30;61.80;;;;;;5051708;28;20442;-45
2023/07/24 01:21:04;;;;;;;11.13;6.30;;;22.20;61.10;;;;;;5051509;28;20446;-44
2023/07/24 01:23:50;;;;;;;9.40;7.20;;;22.10;61.10;;;;;;5051972;28;20423;-46
2023/07/24 01:26:16;;;;;;;9.77;7.33;;;21.90;60.60;;;;;;5050785;28;20439;-49
2023/07/24 01:28:42;;;;;;;10.20;7.37;;;21.90;60.60;;;;;;5051709;28;20476;-47
2023/07/24 01:31:08;;;;;;;8.30;6.77;;;21.70;60.60;;;;;;5051572;28;20916;-46
2023/07/24 01:33:35;;;;;;;8.70;7.80;;;21.70;61.30;;;;;;5051646;28;20195;-48
2023/07/24 01:36:02;;;;;;;8.67;7.27;;;21.80;60.70;;;;;;5050489;28;20299;-48
2023/07/24 01:38:30;;;;;;;7.13;6.37;;;22.00;60.30;;;;;;5051817;28;20454;-49
2023/07/24 01:40:56;;;;;;;10.20;7.40;;;22.10;59.90;;;;;;5050670;28;20430;-48
2023/07/24 01:43:22;;;;;;;8.30;6.90;;;22.20;59.50;;;;;;5050886;28;20923;-47
2023/07/24 01:45:48;;;;;;;8.57;7.03;;;22.10;59.70;;;;;;5050351;28;20438;-44
2023/07/24 01:48:13;;;;;;;9.90;7.43;;;22.00;60.00;;;;;;5051267;28;20427;-46
2023/07/24 01:50:39;;;;;;;9.73;7.27;;;22.30;59.90;;;;;;5051025;28;20195;-47
2023/07/24 01:53:05;;;;;;;10.43;8.33;;;22.50;59.40;;;;;;5051686;28;20196;-48
2023/07/24 01:55:30;;;;;;;8.73;7.43;;;22.50;59.60;;;;;;5050611;28;20192;-43
2023/07/24 01:57:56;;;;;;;7.97;6.97;;;22.50;59.30;;;;;;5051138;28;20843;-44
2023/07/24 02:00:21;;;;;;;11.70;7.40;;;22.50;59.00;;;;;;5051076;28;20672;-48
2023/07/24 02:02:47;;;;;;;9.43;7.47;;;22.40;59.40;;;;;;5051483;28;20196;-44
2023/07/24 02:05:13;;;;;;;9.50;8.07;;;22.40;59.00;;;;;;5050760;28;20188;-45
2023/07/24 02:07:38;;;;;;;9.10;7.50;;;22.50;58.60;;;;;;5051232;28;20196;-46
2023/07/24 02:10:04;;;;;;;9.10;7.13;;;22.50;58.40;;;;;;5049336;28;20193;-43
2023/07/24 02:12:30;;;;;;;9.83;7.77;;;22.40;58.70;;;;;;5051549;28;20185;-45
2023/07/24 02:14:57;;;;;;;11.37;7.70;;;22.20;59.60;;;;;;5050708;28;20513;-43
2023/07/24 02:17:23;;;;;;;11.33;7.90;;;22.30;60.00;;;;;;5038083;28;20273;-48
2023/07/24 02:19:49;;;;;;;10.80;7.37;;;22.10;60.50;;;;;;5050927;28;20465;-44
2023/07/24 02:22:15;;;;;;;9.07;7.27;;;22.10;60.50;;;;;;5052840;28;20973;-45
2023/07/24 02:24:41;;;;;;;6.80;6.10;;;22.00;60.30;;;;;;5054231;28;20321;-46
2023/07/24 02:27:07;;;;;;;10.27;7.67;;;22.00;60.00;;;;;;5055058;28;20430;-43
2023/07/24 02:29:33;;;;;;;7.73;6.90;;;22.00;59.80;;;;;;5055177;28;20200;-44
2023/07/24 02:31:59;;;;;;;9.47;7.57;;;21.80;60.00;;;;;;5054496;28;20196;-48
2023/07/24 02:34:26;;;;;;;9.83;6.67;;;21.70;60.40;;;;;;5055317;28;20490;-43
2023/07/24 02:36:53;;;;;;;8.30;7.00;;;21.60;60.60;;;;;;5052630;28;20584;-46
2023/07/24 02:39:19;;;;;;;9.43;7.10;;;21.60;60.50;;;;;;5055057;28;20428;-44
2023/07/24 02:41:45;;;;;;;10.23;7.77;;;21.60;60.60;;;;;;5054526;28;20491;-45
2023/07/24 02:44:10;;;;;;;7.40;6.60;;;21.50;61.20;;;;;;5054788;28;20431;-49
2023/07/24 02:46:36;;;;;;;10.60;8.03;;;21.50;61.60;;;;;;5053566;28;20783;-47
2023/07/24 02:49:02;;;;;;;11.43;7.80;;;21.60;61.10;;;;;;5054555;28;20193;-43
2023/07/24 02:51:27;;;;;;;10.80;8.17;;;21.40;61.20;;;;;;5054149;28;20193;-43
2023/07/24 02:53:54;;;;;;;8.90;7.57;;;21.30;61.50;;;;;;5055474;28;20192;-48
2023/07/24 02:56:20;;;;;;;8.67;6.67;;;21.40;61.30;;;;;;5053886;28;20232;-45
2023/07/24 02:58:46;;;;;;;9.40;7.90;;;21.40;61.10;;;;;;5054533;28;20434;-43
2023/07/24 03:01:13;;;;;;;8.60;7.07;;;21.40;60.90;;;;;;5054064;28;20968;-47
2023/07/24 03:03:40;;;;;;;8.80;7.30;;;21.40;61.20;;;;;;5053049;28;20192;-43
2023/07/24 03:06:05;;;;;;;8.17;7.33;;;21.40;61.10;;;;;;5053544;28;20532;-44
2023/07/24 03:08:31;;;;;;;9.60;6.93;;;21.30;61.20;;;;;;5054464;28;20423;-46
2023/07/24 03:10:57;;;;;;;9.37;7.80;;;21.40;61.50;;;;;;5053645;28;20204;-43
2023/07/24 03:13:23;;;;;;;10.67;8.23;;;21.40;61.00;;;;;;5047731;28;20563;-43
2023/07/24 03:15:56;;;;;;;9.27;7.57;;;21.40;61.40;;;;;;5053512;28;20462;-43
2023/07/24 03:18:22;;;;;;;8.57;7.50;;;21.50;60.90;;;;;;5054237;28;20196;-44
2023/07/24 03:20:47;;;;;;;11.67;7.90;;;21.60;61.00;;;;;;5053644;28;20930;-44
2023/07/24 03:23:13;;;;;;;8.43;6.87;;;21.50;61.30;;;;;;5054191;28;20196;-44
2023/07/24 03:25:39;;;;;;;7.87;6.17;;;21.50;61.20;;;;;;5053195;28;20195;-46
2023/07/24 03:28:04;;;;;;;10.53;8.40;;;21.60;60.70;;;;;;5054000;28;20207;-43
2023/07/24 03:30:30;;;;;;;8.70;7.30;;;21.60;60.70;;;;;;5051934;28;20610;-44
2023/07/24 03:32:55;;;;;;;8.63;7.37;;;21.70;60.70;;;;;;5053348;28;20196;-43
2023/07/24 03:35:21;;;;;;;10.37;7.63;;;21.50;60.90;;;;;;5053064;28;20215;-46
2023/07/24 03:37:46;;;;;;;10.83;7.93;;;21.30;61.60;;;;;;5053909;28;20232;-48
2023/07/24 03:40:12;;;;;;;9.60;7.60;;;21.30;61.50;;;;;;5053155;28;20249;-43
2023/07/24 03:42:38;;;;;;;7.80;6.93;;;21.40;61.00;;;;;;5053763;28;20197;-44
2023/07/24 03:45:04;;;;;;;10.20;7.60;;;21.50;60.40;;;;;;5052892;28;20193;-42
2023/07/24 03:47:29;;;;;;;8.67;7.07;;;21.50;60.50;;;;;;5053661;28;20204;-44
2023/07/24 03:49:55;;;;;;;10.93;8.00;;;21.70;60.30;;;;;;5053127;28;20974;-46
2023/07/24 03:52:20;;;;;;;8.80;6.90;;;21.80;59.80;;;;;;5053805;28;20192;-44
2023/07/24 03:54:46;;;;;;;9.40;7.30;;;21.90;59.60;;;;;;5052769;28;20197;-43
2023/07/24 03:57:12;;;;;;;9.07;7.30;;;21.80;59.80;;;;;;5051825;28;20251;-45
2023/07/24 03:59:37;;;;;;;9.20;7.07;;;21.80;60.00;;;;;;5053034;28;20199;-46
2023/07/24 04:02:03;;;;;;;8.90;8.00;;;21.70;60.40;;;;;;5052769;28;20242;-44
2023/07/24 04:04:29;;;;;;;8.53;6.83;;;21.80;60.50;;;;;;5053227;28;20200;-43
2023/07/24 04:06:54;;;;;;;10.70;7.67;;;22.00;59.90;;;;;;5053093;28;20435;-43
2023/07/24 04:09:20;;;;;;;9.33;7.20;;;22.00;59.80;;;;;;5053345;28;20193;-45
2023/07/24 04:11:46;;;;;;;10.63;7.87;;;22.00;60.20;;;;;;5052507;28;20203;-44
2023/07/24 04:14:11;;;;;;;9.80;7.60;;;21.90;60.40;;;;;;5053076;28;20229;-43
2023/07/24 04:16:37;;;;;;;8.30;7.00;;;21.90;60.20;;;;;;5052028;28;20247;-43
2023/07/24 04:19:03;;;;;;;8.60;7.20;;;21.90;60.70;;;;;;5053130;28;20191;-43
2023/07/24 04:21:29;;;;;;;11.27;8.50;;;21.80;60.80;;;;;;5052105;28;20189;-43
2023/07/24 04:23:54;;;;;;;9.97;7.70;;;21.80;61.10;;;;;;5051649;28;20192;-43
2023/07/24 04:26:20;;;;;;;10.83;7.37;;;21.90;61.00;;;;;;5051882;28;20200;-44
2023/07/24 04:28:46;;;;;;;8.10;7.30;;;21.90;60.70;;;;;;5052801;28;20684;-43
2023/07/24 04:31:11;;;;;;;11.43;8.30;;;21.80;60.70;;;;;;5052393;28;20193;-43
2023/07/24 04:33:37;;;;;;;7.10;6.30;;;21.80;60.90;;;;;;5052629;28;20189;-43
2023/07/24 04:36:03;;;;;;;9.53;7.80;;;21.90;60.60;;;;;;5051779;28;20227;-43
2023/07/24 04:38:28;;;;;;;7.97;6.87;;;22.10;60.00;;;;;;5052861;28;20193;-42
2023/07/24 04:40:54;;;;;;;8.60;7.67;;;22.20;59.70;;;;;;5052274;28;20191;-43
2023/07/24 04:43:19;;;;;;;9.30;7.60;;;22.30;59.50;;;;;;5052384;28;20188;-43
2023/07/24 04:45:45;;;;;;;8.57;7.27;;;22.50;59.40;;;;;;5050714;28;20608;-43
2023/07/24 04:48:10;;;;;;;8.83;7.23;;;22.60;58.80;;;;;;5052544;28;20330;-43
2023/07/24 04:50:36;;;;;;;9.30;8.00;;;22.70;58.60;;;;;;5050354;28;20192;-46
2023/07/24 04:53:02;;;;;;;8.90;7.60;;;22.80;58.10;;;;;;5052307;28;20671;-44
2023/07/24 04:55:27;;;;;;;10.80;8.83;;;22.90;57.90;;;;;;5051426;28;20203;-43
2023/07/24 04:57:53;;;;;;;10.40;9.00;;;22.90;57.90;;;;;;5052669;28;20197;-43
2023/07/24 05:00:18;;;;;;;12.20;8.10;;;23.00;57.70;;;;;;5051679;28;20193;-45
2023/07/24 05:02:44;;;;;;;11.07;8.03;;;22.90;57.70;;;;;;5052338;28;20573;-46
2023/07/24 05:05:10;;;;;;;11.03;8.50;;;22.90;57.80;;;;;;5051492;28;20189;-43
2023/07/24 05:07:35;;;;;;;11.10;7.43;;;22.70;58.50;;;;;;5052358;28;20195;-43
2023/07/24 05:10:01;;;;;;;11.10;8.57;;;22.50;59.20;;;;;;5051702;28;20192;-43
2023/07/24 05:12:26;;;;;;;9.37;8.07;;;22.50;59.10;;;;;;5052084;28;20228;-43
2023/07/24 05:14:52;;;;;;;10.70;8.30;;;22.60;58.90;;;;;;5051152;28;20249;-44
2023/07/24 05:17:18;;;;;;;8.20;7.37;;;22.50;59.10;;;;;;5050346;28;20683;-43
2023/07/24 05:19:43;;;;;;;9.33;7.40;;;22.60;59.60;;;;;;5051103;28;20606;-44
2023/07/24 05:22:10;;;;;;;8.90;7.30;;;22.60;59.50;;;;;;5051778;28;20201;-44
2023/07/24 05:24:36;;;;;;;9.80;7.80;;;22.50;59.50;;;;;;5051420;28;20239;-43
2023/07/24 05:27:03;;;;;;;10.10;7.57;;;22.20;60.00;;;;;;5051514;28;20922;-43
2023/07/24 05:29:29;;;;;;;8.67;7.20;;;21.90;61.30;;;;;;5051657;28;20427;-44
2023/07/24 05:31:55;;;;;;;9.67;7.83;;;21.80;62.10;;;;;;5051442;28;20481;-43
2023/07/24 05:34:20;;;;;;;9.90;7.83;;;21.70;63.10;;;;;;5051601;28;20238;-43
2023/07/24 05:36:46;;;;;;;11.33;8.50;;;22.00;63.20;;;;;;5050851;28;20232;-44
2023/07/24 05:39:11;;;;;;;9.63;8.10;;;22.10;62.30;;;;;;5051647;28;20207;-43
2023/07/24 05:41:37;;;;;;;10.23;8.47;;;22.30;61.70;;;;;;5050929;28;20197;-43
2023/07/24 05:44:03;;;;;;;11.40;8.80;;;22.70;60.80;;;;;;5050116;28;20195;-43
2023/07/24 05:46:28;;;;;;;9.53;7.87;;;22.90;59.90;;;;;;5050426;28;20658;-43
2023/07/24 05:48:54;;;;;;;9.43;8.43;;;23.10;59.10;;;;;;5051891;28;20199;-42
2023/07/24 05:51:19;;;;;;;10.77;8.07;;;23.30;58.50;;;;;;5051035;28;20200;-43
2023/07/24 05:53:45;;;;;;;13.03;8.23;;;23.50;58.00;;;;;;5051514;28;20196;-43
2023/07/24 05:56:11;;;;;;;11.77;7.93;;;23.60;57.60;;;;;;5050089;28;20295;-43
2023/07/24 05:58:36;;;;;;;10.27;7.70;;;23.70;57.30;;;;;;5051569;28;20198;-43
2023/07/24 06:01:02;;;;;;;12.00;7.80;;;23.80;57.20;;;;;;5050920;28;20690;-43
2023/07/24 06:03:27;;;;;;;11.17;8.90;;;23.90;57.10;;;;;;5051476;28;20243;-44
2023/07/24 06:05:54;;;;;;;12.90;9.07;;;24.00;56.90;;;;;;5050876;28;20243;-43
2023/07/24 06:08:20;;;;;;;8.60;7.63;;;24.00;56.60;;;;;;5051233;28;20185;-43
2023/07/24 06:10:48;;;;;;;12.60;8.73;;;23.90;56.70;;;;;;5049177;28;20431;-43
2023/07/24 06:13:15;;;;;;;11.20;7.87;;;23.90;56.50;;;;;;5051351;28;20435;-44
2023/07/24 06:15:40;;;;;;;10.23;7.83;;;24.00;56.50;;;;;;5050311;28;20455;-43
2023/07/24 06:18:06;;;;;;;10.30;8.27;;;24.10;56.50;;;;;;5051041;28;20423;-44
2023/07/24 06:20:32;;;;;;;11.60;8.27;;;24.10;56.60;;;;;;5050737;28;20185;-44
2023/07/24 06:22:57;;;;;;;9.27;7.30;;;24.10;56.40;;;;;;5051328;28;20192;-43
2023/07/24 06:25:23;;;;;;;12.20;8.00;;;24.10;56.40;;;;;;5050070;28;20188;-45
2023/07/24 06:27:48;;;;;;;10.03;7.23;;;24.10;56.20;;;;;;5051242;28;20200;-43
2023/07/24 06:30:14;;;;;;;11.47;7.77;;;24.00;56.70;;;;;;5050212;28;20189;-44
2023/07/24 06:32:39;;;;;;;12.50;9.10;;;23.90;55.70;;;;;;5051012;28;20197;-43
2023/07/24 06:35:05;;;;;;;9.27;7.93;;;23.80;56.10;;;;;;5050103;28;20193;-43
2023/07/24 06:37:31;;;;;;;10.10;7.50;;;23.70;56.20;;;;;;5049292;28;20226;-43
2023/07/24 06:39:56;;;;;;;10.10;8.20;;;23.70;56.00;;;;;;5050565;28;20271;-44
2023/07/24 06:42:22;;;;;;;8.47;7.20;;;23.60;56.20;;;;;;5051275;28;20666;-43
2023/07/24 06:44:48;;;;;;;8.63;7.67;;;23.40;56.40;;;;;;5050183;28;20193;-43
2023/07/24 06:47:13;;;;;;;10.80;8.07;;;23.30;56.60;;;;;;5050896;28;20539;-43
2023/07/24 06:49:39;;;;;;;12.27;8.30;;;23.30;56.20;;;;;;5050659;28;20663;-43
2023/07/24 06:52:05;;;;;;;11.33;8.57;;;23.50;56.00;;;;;;5050681;28;20231;-45
2023/07/24 06:54:30;;;;;;;12.13;8.90;;;23.60;55.70;;;;;;5050724;28;20200;-48
2023/07/24 06:56:56;;;;;;;10.07;7.77;;;23.90;55.10;;;;;;5050334;28;20228;-47
2023/07/24 06:59:21;;;;;;;9.00;7.77;;;24.30;54.50;;;;;;5051159;28;20192;-48
2023/07/24 07:01:47;;;;;;;17.23;14.10;;;24.30;54.10;;;;;;5050494;28;20208;-49
2023/07/24 07:04:12;;;;;;;9.10;8.10;;;24.40;53.70;;;;;;5048666;28;20211;-48
2023/07/24 07:06:38;;;;;;;15.53;8.30;;;24.50;53.20;;;;;;5050536;28;20188;-49
2023/07/24 07:09:04;;;;;;;10.73;8.10;;;24.60;53.30;;;;;;5053666;28;20632;-49
2023/07/24 07:11:30;;;;;;;9.80;8.30;;;24.60;53.30;;;;;;5053950;28;20592;-47
2023/07/24 07:13:55;;;;;;;12.33;9.10;;;24.50;53.50;;;;;;5054274;28;20473;-47
2023/07/24 07:16:21;;;;;;;11.60;8.57;;;24.40;53.70;;;;;;5053322;28;20224;-47
2023/07/24 07:18:47;;;;;;;11.93;8.47;;;24.50;53.60;;;;;;5054379;28;20189;-46
2023/07/24 07:21:12;;;;;;;8.67;7.73;;;24.60;53.20;;;;;;5053676;28;20224;-46
2023/07/24 07:23:38;;;;;;;10.63;7.80;;;24.50;53.30;;;;;;5054280;28;20220;-46
2023/07/24 07:26:03;;;;;;;9.43;8.10;;;24.40;53.70;;;;;;5053427;28;20196;-48
2023/07/24 07:28:29;;;;;;;9.30;7.60;;;24.50;54.30;;;;;;5054004;28;20623;-47
2023/07/24 07:30:54;;;;;;;10.23;7.43;;;24.70;54.00;;;;;;5052398;28;20281;-44
2023/07/24 07:33:24;;;;;;;12.93;8.63;;;24.90;53.60;;;;;;5053832;28;20201;-45
2023/07/24 07:35:50;;;;;;;11.03;8.17;;;24.80;53.70;;;;;;5052724;28;20200;-48
2023/07/24 07:38:15;;;;;;;12.30;8.33;;;24.70;54.20;;;;;;5054011;28;20493;-48
2023/07/24 07:40:41;;;;;;;9.43;7.70;;;24.70;54.10;;;;;;5053334;28;20262;-47
2023/07/24 07:43:06;;;;;;;10.53;8.90;;;24.70;54.30;;;;;;5053722;28;20193;-46
2023/07/24 07:45:32;;;;;;;9.53;8.47;;;24.70;53.90;;;;;;5052541;28;20197;-48
2023/07/24 07:47:58;;;;;;;11.03;9.17;;;24.90;54.10;;;;;;5053741;28;20192;-47
2023/07/24 07:50:24;;;;;;;9.23;8.20;;;24.90;53.90;;;;;;5052033;28;20541;-47
2023/07/24 07:52:51;;;;;;;18.63;9.30;;;24.90;54.00;;;;;;5053616;28;20999;-46
2023/07/24 07:55:17;;;;;;;10.83;8.60;;;24.90;54.20;;;;;;5052451;28;20315;-47
2023/07/24 07:57:42;;;;;;;10.30;9.13;;;24.80;54.30;;;;;;5052667;28;20561;-48
2023/07/24 08:00:08;;;;;;;10.40;7.60;;;24.80;54.50;;;;;;5052314;28;20187;-49
2023/07/24 08:02:34;;;;;;;10.77;8.97;;;24.80;54.30;;;;;;5053346;28;20713;-48
2023/07/24 08:05:00;;;;;;;10.07;7.97;;;24.80;54.60;;;;;;5052391;28;20431;-48
2023/07/24 08:07:25;;;;;;;10.73;9.13;;;24.70;54.70;;;;;;5053464;28;20651;-47
2023/07/24 08:09:51;;;;;;;12.50;9.10;;;24.60;55.10;;;;;;5053046;28;20193;-47
2023/07/24 08:12:16;;;;;;;10.70;8.30;;;24.50;55.30;;;;;;5053150;28;20704;-47
2023/07/24 08:14:42;;;;;;;12.50;8.43;;;24.60;55.60;;;;;;5052402;28;20239;-49
2023/07/24 08:17:08;;;;;;;11.60;7.80;;;24.70;55.90;;;;;;5053494;28;20229;-48
2023/07/24 08:19:33;;;;;;;9.80;7.83;;;24.80;56.10;;;;;;5053093;28;20184;-44
2023/07/24 08:21:59;;;;;;;11.80;7.77;;;24.90;55.80;;;;;;5052355;28;20262;-45
2023/07/24 08:24:25;;;;;;;12.00;8.87;;;25.20;55.60;;;;;;5052497;28;20192;-45
2023/07/24 08:26:50;;;;;;;11.40;8.13;;;25.40;55.30;;;;;;5050843;28;20203;-46
2023/07/24 08:29:16;;;;;;;9.07;7.83;;;25.50;55.20;;;;;;5052869;28;20246;-48
2023/07/24 08:31:41;;;;;;;12.57;9.50;;;25.60;55.70;;;;;;5052254;28;20195;-44
2023/07/24 08:34:07;;;;;;;11.90;9.27;;;25.70;56.00;;;;;;5052495;28;20203;-46
2023/07/24 08:36:32;;;;;;;13.43;9.47;;;25.90;56.70;;;;;;5052046;28;20232;-45
2023/07/24 08:38:58;;;;;;;10.33;8.87;;;25.90;56.80;;;;;;5051647;28;20215;-49
2023/07/24 08:41:24;;;;;;;13.40;9.97;;;25.90;56.80;;;;;;5052067;28;20550;-47
2023/07/24 08:43:51;;;;;;;10.50;8.87;;;25.80;57.70;;;;;;5052256;28;20271;-44
2023/07/24 08:46:18;;;;;;;12.20;9.33;;;25.80;57.60;;;;;;5052187;28;20564;-48
2023/07/24 08:48:44;;;;;;;12.40;9.83;;;25.70;59.00;;;;;;5052523;28;20477;-43
2023/07/24 08:51:15;;;;;;;15.00;9.23;;;25.40;60.20;;;;;;5051607;28;20424;-47
2023/07/24 08:53:43;;;;;;;13.07;8.90;;;25.60;60.60;;;;;;5050618;28;20188;-43
2023/07/24 08:56:10;;;;;;;14.73;9.13;;;25.70;60.90;;;;;;5051397;28;20472;-44
2023/07/24 08:58:36;;;;;;;10.00;8.90;;;25.70;62.40;;;;;;5052240;28;20797;-43
2023/07/24 09:01:03;;;;;;;13.83;9.10;;;25.30;63.00;;;;;;5051424;28;20466;-44
2023/07/24 09:03:30;;;;;;;10.63;9.33;;;25.00;64.60;;;;;;5052213;28;20431;-45
2023/07/24 09:05:56;;;;;;;12.47;8.00;;;24.90;65.80;;;;;;5051336;28;20438;-48
2023/07/24 09:08:36;;;;;;;11.80;8.93;;;24.80;65.60;;;;;;5052242;28;20499;-43
2023/07/24 09:11:03;;;;;;;15.83;9.60;;;24.60;66.90;;;;;;5051519;28;20415;-44
2023/07/24 09:13:29;;;;;;;12.00;9.10;;;24.70;67.70;;;;;;5051775;28;20949;-45
2023/07/24 09:15:55;;;;;;;10.57;8.33;;;24.80;66.90;;;;;;5051276;28;20431;-44
2023/07/24 09:18:21;;;;;;;11.27;8.93;;;24.90;65.30;;;;;;5051415;28;20442;-46
2023/07/24 09:20:47;;;;;;;10.10;8.73;;;25.10;65.40;;;;;;5049072;28;20239;-45
2023/07/24 09:23:14;;;;;;;10.63;8.37;;;25.20;64.20;;;;;;5051711;28;20431;-44
2023/07/24 09:25:42;;;;;;;8.70;7.80;;;25.30;65.10;;;;;;5051070;28;20426;-47
2023/07/24 09:28:17;;;;;;;8.60;7.50;;;25.40;64.20;;;;;;5051469;28;20431;-43
2023/07/24 09:30:54;;;;;;;8.00;7.20;;;25.70;64.90;;;;;;5050758;28;20493;-43
2023/07/24 09:33:20;;;;;;;9.63;7.50;;;25.90;63.40;;;;;;5051508;28;20847;-45
2023/07/24 09:35:57;;;;;;;8.70;7.70;;;25.90;61.70;;;;;;5050368;28;20430;-44
2023/07/24 09:38:23;;;;;;;14.27;8.50;;;26.10;61.60;;;;;;5051587;28;20427;-44
2023/07/24 09:40:50;;;;;;;7.80;6.70;;;26.10;62.30;;;;;;5050998;28;20986;-43
2023/07/24 09:43:23;;;;;;;8.40;7.50;;;26.30;61.20;;;;;;5051598;28;20553;-45
2023/07/24 09:45:50;;;;;;;7.70;6.93;;;26.30;59.90;;;;;;5048790;28;20441;-48
2023/07/24 09:48:17;;;;;;;8.70;7.10;;;26.40;60.10;;;;;;5051429;28;20485;-48
2023/07/24 09:50:46;;;;;;;7.53;6.73;;;26.40;59.40;;;;;;5050724;28;20442;-44
2023/07/24 09:53:29;;;;;;;8.20;7.40;;;26.40;58.50;;;;;;5051307;28;20432;-44
2023/07/24 09:56:04;;;;;;;7.03;6.33;;;26.40;59.90;;;;;;5050482;28;20518;-45
2023/07/24 09:58:34;;;;;;;7.03;6.33;;;26.60;59.70;;;;;;5051287;28;20427;-45
2023/07/24 10:01:07;;;;;;;10.30;7.90;;;26.70;59.10;;;;;;5051112;28;20481;-44
2023/07/24 10:03:40;;;;;;;8.17;6.23;;;26.70;58.60;;;;;;5051730;28;20794;-45
2023/07/24 10:06:11;;;;;;;8.70;7.60;;;26.70;58.50;;;;;;5050631;28;20419;-44
2023/07/24 10:08:39;;;;;;;8.70;6.40;;;26.50;58.60;;;;;;5050952;28;20541;-44
2023/07/24 10:11:05;;;;;;;10.80;7.07;;;26.50;58.70;;;;;;5050841;28;20792;-43
2023/07/24 10:13:31;;;;;;;7.40;6.67;;;26.50;59.20;;;;;;5049616;28;20426;-44
2023/07/24 10:15:57;;;;;;;8.20;6.50;;;26.40;59.20;;;;;;5050415;28;20427;-48
2023/07/24 10:18:27;;;;;;;7.70;6.60;;;26.10;59.60;;;;;;5051257;28;20449;-43
2023/07/24 10:21:05;;;;;;;10.90;6.90;;;26.00;59.70;;;;;;5050587;28;20196;-45
2023/07/24 10:23:33;;;;;;;10.20;7.43;;;26.00;59.50;;;;;;5051148;28;20429;-44
2023/07/24 10:26:05;;;;;;;9.13;7.27;;;26.00;60.50;;;;;;5050277;28;20418;-45
2023/07/24 10:28:38;;;;;;;9.80;7.33;;;26.10;60.60;;;;;;5050787;28;20438;-45
2023/07/24 10:31:08;;;;;;;7.60;6.70;;;26.10;60.70;;;;;;5050506;28;20530;-44
2023/07/24 10:33:37;;;;;;;9.63;7.97;;;26.10;60.80;;;;;;5050971;28;20439;-44
2023/07/24 10:36:09;;;;;;;8.60;7.60;;;26.20;60.50;;;;;;5050229;28;20501;-44
2023/07/24 10:38:40;;;;;;;7.83;6.80;;;26.30;60.40;;;;;;5050903;28;20439;-44
2023/07/24 10:41:07;;;;;;;8.23;7.30;;;26.30;60.10;;;;;;5048945;28;20446;-43
2023/07/24 10:43:48;;;;;;;8.60;7.43;;;26.30;60.00;;;;;;5053077;28;20428;-46
2023/07/24 10:46:17;;;;;;;10.37;8.03;;;26.40;60.60;;;;;;5054183;28;20439;-45
2023/07/24 10:48:48;;;;;;;8.27;6.87;;;26.40;61.60;;;;;;5054708;28;20435;-43
2023/07/24 10:51:14;;;;;;;10.83;7.63;;;26.40;62.00;;;;;;5053790;28;20949;-47
2023/07/24 10:53:46;;;;;;;9.83;7.23;;;26.30;61.80;;;;;;5054403;28;20427;-43
2023/07/24 10:56:12;;;;;;;8.80;7.43;;;26.30;62.00;;;;;;5053928;28;20522;-45
2023/07/24 10:58:37;;;;;;;8.70;7.20;;;26.30;62.40;;;;;;5054508;28;20420;-43
2023/07/24 11:01:04;;;;;;;8.17;7.17;;;26.30;62.50;;;;;;5053539;28;20430;-44
2023/07/24 11:03:31;;;;;;;10.53;8.30;;;26.30;63.20;;;;;;5054454;28;20196;-45
2023/07/24 11:05:58;;;;;;;10.67;7.30;;;26.30;64.20;;;;;;5053353;28;20443;-45
2023/07/24 11:08:24;;;;;;;10.80;8.83;;;26.10;65.40;;;;;;5053656;28;20422;-46
2023/07/24 11:10:54;;;;;;;13.23;7.73;;;26.10;66.30;;;;;;5053655;28;20509;-44
2023/07/24 11:13:23;;;;;;;12.07;8.23;;;26.10;67.00;;;;;;5054354;28;20499;-45
2023/07/24 11:15:49;;;;;;;11.20;7.50;;;25.90;67.80;;;;;;5053059;28;20427;-47
2023/07/24 11:18:16;;;;;;;12.40;8.37;;;25.70;68.10;;;;;;5054357;28;20438;-44
2023/07/24 11:20:47;;;;;;;10.83;7.87;;;25.60;68.20;;;;;;5053615;28;20438;-44
2023/07/24 11:23:13;;;;;;;9.80;8.30;;;25.40;68.80;;;;;;5054255;28;20427;-46
2023/07/24 11:25:40;;;;;;;8.00;6.27;;;25.00;70.80;;;;;;5053070;28;20485;-44
2023/07/24 11:28:07;;;;;;;9.27;6.97;;;25.00;70.40;;;;;;5054167;28;20481;-43
2023/07/24 11:30:33;;;;;;;8.57;6.93;;;24.70;71.50;;;;;;5053237;28;20521;-44
2023/07/24 11:33:01;;;;;;;7.97;6.97;;;24.60;73.80;;;;;;5053215;28;20419;-43
2023/07/24 11:35:27;;;;;;;8.50;7.23;;;24.50;71.50;;;;;;5052458;28;20188;-44
2023/07/24 11:37:53;;;;;;;8.43;6.53;;;24.50;72.10;;;;;;5053671;28;20581;-43
2023/07/24 11:40:20;;;;;;;11.37;7.23;;;24.40;71.20;;;;;;5053282;28;20522;-43
2023/07/24 11:42:48;;;;;;;8.37;6.53;;;24.50;72.00;;;;;;5053434;28;20605;-43
2023/07/24 11:45:14;;;;;;;7.43;6.57;;;23.90;73.00;;;;;;5052701;28;20492;-44
2023/07/24 11:47:45;;;;;;;9.70;7.27;;;23.60;76.00;;;;;;5053751;28;20841;-43
2023/07/24 11:50:11;;;;;;;10.63;7.70;;;23.80;76.20;;;;;;5053140;28;20523;-43
2023/07/24 11:52:43;;;;;;;13.53;7.40;;;23.90;77.10;;;;;;5053460;28;20530;-48
2023/07/24 11:55:13;;;;;;;8.00;6.80;;;24.20;77.40;;;;;;5052145;28;20216;-43
2023/07/24 11:57:39;;;;;;;8.17;6.73;;;24.50;79.00;;;;;;5053341;28;20508;-44
2023/07/24 12:00:16;;;;;;;7.77;6.50;;;24.80;76.50;;;;;;5051243;28;20419;-43
2023/07/24 12:02:42;;;;;;;7.60;6.47;;;25.10;74.40;;;;;;5053345;28;20551;-43
2023/07/24 12:05:10;;;;;;;8.00;7.10;;;25.00;68.90;;;;;;5052129;28;20433;-43
2023/07/24 12:07:36;;;;;;;8.40;6.37;;;25.00;69.30;;;;;;5053315;28;20200;-43
2023/07/24 12:10:04;;;;;;;6.90;6.10;;;25.00;67.70;;;;;;5052754;28;20942;-43
2023/07/24 12:12:48;;;;;;;6.80;6.10;;;24.70;68.30;;;;;;5053312;28;20278;-43
2023/07/24 12:15:14;;;;;;;7.40;5.70;;;24.80;68.30;;;;;;5051775;28;20876;-43
2023/07/24 12:17:40;;;;;;;9.30;6.37;;;24.80;67.60;;;;;;5052935;28;21012;-43
2023/07/24 12:20:11;;;;;;;8.13;6.87;;;24.90;67.80;;;;;;5052398;28;20940;-43
2023/07/24 12:22:38;;;;;;;7.50;6.70;;;25.00;67.70;;;;;;5052954;28;20557;-43
2023/07/24 12:25:04;;;;;;;8.47;6.30;;;24.70;68.60;;;;;;5051905;28;20424;-44
2023/07/24 12:27:30;;;;;;;8.40;6.53;;;24.80;69.80;;;;;;5051376;28;20493;-42
2023/07/24 12:29:57;;;;;;;7.50;6.70;;;24.90;69.80;;;;;;5052620;28;20481;-43
2023/07/24 12:32:22;;;;;;;8.30;7.30;;;25.00;69.60;;;;;;5052748;28;20489;-45
2023/07/24 12:34:50;;;;;;;8.87;6.70;;;25.20;68.80;;;;;;5051649;28;20423;-44
2023/07/24 12:37:16;;;;;;;8.40;6.93;;;25.40;69.10;;;;;;5052544;28;20231;-43
2023/07/24 12:39:41;;;;;;;7.87;6.20;;;25.60;68.70;;;;;;5051881;28;20427;-44